sensor_id;sensor_type;location;lat;lon;timestamp;P1;durP1;ratioP1;P2;durP2;ratioP2
1523;SDS011;755;53.658;10.118;2023-02-08T00:02:38;61.17;;;22.95;;
1523;SDS011;755;53.658;10.118;2023-02-08T00:12:45;53.85;;;20.25;;
1523;SDS011;755;53.658;10.118;2023-02-08T00:22:47;44.20;;;16.73;;
1523;SDS011;755;53.658;10.118;2023-02-08T00:32:51;49.58;;;16.40;;
1523;SDS011;755;53.658;10.118;2023-02-08T00:42:53;42.70;;;17.58;;
1523;SDS011;755;53.658;10.118;2023-02-08T00:52:56;42.88;;;16.98;;
1523;SDS011;755;53.658;10.118;2023-02-08T01:02:58;38.03;;;15.85;;
1523;SDS011;755;53.658;10.118;2023-02-08T01:13:02;51.08;;;17.55;;
1523;SDS011;755;53.658;10.118;2023-02-08T01:23:04;47.97;;;18.02;;
1523;SDS011;755;53.658;10.118;2023-02-08T01:33:08;40.13;;;15.18;;
1523;SDS011;755;53.658;10.118;2023-02-08T01:43:13;46.78;;;16.25;;
1523;SDS011;755;53.658;10.118;2023-02-08T01:53:21;44.63;;;15.52;;
1523;SDS011;755;53.658;10.118;2023-02-08T02:03:25;42.67;;;16.80;;
1523;SDS011;755;53.658;10.118;2023-02-08T02:13:28;42.85;;;15.70;;
1523;SDS011;755;53.658;10.118;2023-02-08T02:23:49;45.70;;;16.92;;
1523;SDS011;755;53.658;10.118;2023-02-08T02:34:14;38.50;;;15.25;;
1523;SDS011;755;53.658;10.118;2023-02-08T02:44:21;38.92;;;15.40;;
1523;SDS011;755;53.658;10.118;2023-02-08T02:54:31;50.33;;;17.48;;
1523;SDS011;755;53.658;10.118;2023-02-08T03:04:49;41.28;;;17.05;;
1523;SDS011;755;53.658;10.118;2023-02-08T03:14:56;43.55;;;16.63;;
1523;SDS011;755;53.658;10.118;2023-02-08T03:25:05;49.58;;;17.88;;
1523;SDS011;755;53.658;10.118;2023-02-08T03:35:20;44.33;;;17.90;;
1523;SDS011;755;53.658;10.118;2023-02-08T03:45:27;38.70;;;16.38;;
1523;SDS011;755;53.658;10.118;2023-02-08T03:55:35;41.55;;;14.68;;
1523;SDS011;755;53.658;10.118;2023-02-08T04:05:42;40.17;;;15.70;;
1523;SDS011;755;53.658;10.118;2023-02-08T04:15:46;42.05;;;14.77;;
1523;SDS011;755;53.658;10.118;2023-02-08T04:25:49;46.58;;;16.45;;
1523;SDS011;755;53.658;10.118;2023-02-08T04:35:52;48.38;;;16.48;;
1523;SDS011;755;53.658;10.118;2023-02-08T04:45:54;45.50;;;15.85;;
1523;SDS011;755;53.658;10.118;2023-02-08T04:55:57;43.92;;;17.52;;
1523;SDS011;755;53.658;10.118;2023-02-08T05:05:59;45.42;;;16.70;;
1523;SDS011;755;53.658;10.118;2023-02-08T05:16:03;53.60;;;19.92;;
1523;SDS011;755;53.658;10.118;2023-02-08T05:26:05;49.55;;;18.15;;
1523;SDS011;755;53.658;10.118;2023-02-08T05:36:09;63.15;;;20.90;;
1523;SDS011;755;53.658;10.118;2023-02-08T05:46:11;55.80;;;20.50;;
1523;SDS011;755;53.658;10.118;2023-02-08T05:56:14;57.50;;;19.92;;
1523;SDS011;755;53.658;10.118;2023-02-08T06:06:16;50.60;;;18.50;;
1523;SDS011;755;53.658;10.118;2023-02-08T06:16:19;62.33;;;20.17;;
1523;SDS011;755;53.658;10.118;2023-02-08T06:26:21;49.83;;;18.45;;
1523;SDS011;755;53.658;10.118;2023-02-08T06:36:25;58.05;;;19.02;;
1523;SDS011;755;53.658;10.118;2023-02-08T06:46:26;58.60;;;21.58;;
1523;SDS011;755;53.658;10.118;2023-02-08T06:56:30;57.65;;;18.77;;
1523;SDS011;755;53.658;10.118;2023-02-08T07:06:32;56.60;;;20.45;;
1523;SDS011;755;53.658;10.118;2023-02-08T07:16:35;54.00;;;19.75;;
1523;SDS011;755;53.658;10.118;2023-02-08T07:26:37;70.18;;;21.77;;
1523;SDS011;755;53.658;10.118;2023-02-08T07:36:40;59.80;;;22.13;;
1523;SDS011;755;53.658;10.118;2023-02-08T07:46:46;66.28;;;22.73;;
1523;SDS011;755;53.658;10.118;2023-02-08T07:56:50;70.35;;;21.92;;
1523;SDS011;755;53.658;10.118;2023-02-08T08:06:52;71.38;;;23.55;;
1523;SDS011;755;53.658;10.118;2023-02-08T08:16:57;75.60;;;26.67;;
1523;SDS011;755;53.658;10.118;2023-02-08T08:26:59;81.03;;;27.13;;
1523;SDS011;755;53.658;10.118;2023-02-08T08:37:03;87.72;;;29.77;;
1523;SDS011;755;53.658;10.118;2023-02-08T08:47:05;94.45;;;26.85;;
1523;SDS011;755;53.658;10.118;2023-02-08T08:57:10;86.43;;;28.55;;
1523;SDS011;755;53.658;10.118;2023-02-08T09:07:12;111.15;;;31.55;;
1523;SDS011;755;53.658;10.118;2023-02-08T09:17:16;89.22;;;29.83;;
1523;SDS011;755;53.658;10.118;2023-02-08T09:27:18;86.55;;;27.80;;
1523;SDS011;755;53.658;10.118;2023-02-08T09:37:22;88.00;;;25.77;;
1523;SDS011;755;53.658;10.118;2023-02-08T09:47:27;85.55;;;24.13;;
1523;SDS011;755;53.658;10.118;2023-02-08T09:57:33;79.57;;;22.92;;
1523;SDS011;755;53.658;10.118;2023-02-08T10:07:36;54.63;;;19.75;;
1523;SDS011;755;53.658;10.118;2023-02-08T10:28:31;60.10;;;16.80;;
1523;SDS011;755;53.658;10.118;2023-02-08T10:38:59;49.08;;;17.60;;
1523;SDS011;755;53.658;10.118;2023-02-08T10:59:14;41.80;;;16.33;;
1523;SDS011;755;53.658;10.118;2023-02-08T11:09:23;46.80;;;16.63;;
1523;SDS011;755;53.658;10.118;2023-02-08T11:19:31;36.90;;;15.07;;
1523;SDS011;755;53.658;10.118;2023-02-08T11:29:35;44.67;;;15.43;;
1523;SDS011;755;53.658;10.118;2023-02-08T11:39:39;44.78;;;14.05;;
1523;SDS011;755;53.658;10.118;2023-02-08T11:49:50;46.28;;;16.13;;
1523;SDS011;755;53.658;10.118;2023-02-08T12:10:21;49.00;;;15.27;;
1523;SDS011;755;53.658;10.118;2023-02-08T12:20:36;36.30;;;12.90;;
1523;SDS011;755;53.658;10.118;2023-02-08T12:30:42;38.55;;;12.90;;
1523;SDS011;755;53.658;10.118;2023-02-08T12:40:51;42.35;;;14.07;;
1523;SDS011;755;53.658;10.118;2023-02-08T13:01:30;30.40;;;11.38;;
1523;SDS011;755;53.658;10.118;2023-02-08T13:11:36;28.27;;;11.07;;
1523;SDS011;755;53.658;10.118;2023-02-08T13:21:47;38.53;;;12.18;;
1523;SDS011;755;53.658;10.118;2023-02-08T13:31:57;28.17;;;9.48;;
1523;SDS011;755;53.658;10.118;2023-02-08T13:42:06;23.45;;;8.68;;
1523;SDS011;755;53.658;10.118;2023-02-08T14:03:00;25.00;;;8.02;;
1523;SDS011;755;53.658;10.118;2023-02-08T14:13:04;21.80;;;7.00;;
1523;SDS011;755;53.658;10.118;2023-02-08T14:23:59;21.90;;;7.70;;
1523;SDS011;755;53.658;10.118;2023-02-08T14:34:05;19.83;;;7.15;;
1523;SDS011;755;53.658;10.118;2023-02-08T14:55:05;22.42;;;7.78;;
1523;SDS011;755;53.658;10.118;2023-02-08T15:05:21;31.10;;;8.40;;
1523;SDS011;755;53.658;10.118;2023-02-08T15:15:26;22.02;;;8.10;;
1523;SDS011;755;53.658;10.118;2023-02-08T15:35:35;24.55;;;9.50;;
1523;SDS011;755;53.658;10.118;2023-02-08T15:45:39;30.08;;;10.85;;
1523;SDS011;755;53.658;10.118;2023-02-08T15:55:43;25.90;;;10.02;;
1523;SDS011;755;53.658;10.118;2023-02-08T16:06:37;28.88;;;10.15;;
1523;SDS011;755;53.658;10.118;2023-02-08T16:16:45;35.88;;;10.10;;
1523;SDS011;755;53.658;10.118;2023-02-08T16:26:56;31.70;;;10.33;;
1523;SDS011;755;53.658;10.118;2023-02-08T16:37:03;30.45;;;10.90;;
1523;SDS011;755;53.658;10.118;2023-02-08T16:57:36;27.33;;;10.82;;
1523;SDS011;755;53.658;10.118;2023-02-08T17:07:42;27.25;;;10.25;;
1523;SDS011;755;53.658;10.118;2023-02-08T17:17:44;34.13;;;11.45;;
1523;SDS011;755;53.658;10.118;2023-02-08T17:27:48;26.52;;;10.15;;
1523;SDS011;755;53.658;10.118;2023-02-08T17:37:53;28.02;;;11.15;;
1523;SDS011;755;53.658;10.118;2023-02-08T17:47:59;29.75;;;10.32;;
1523;SDS011;755;53.658;10.118;2023-02-08T17:58:01;40.65;;;13.43;;
1523;SDS011;755;53.658;10.118;2023-02-08T18:08:06;35.13;;;13.50;;
1523;SDS011;755;53.658;10.118;2023-02-08T18:18:11;42.08;;;15.55;;
1523;SDS011;755;53.658;10.118;2023-02-08T18:28:18;43.88;;;15.85;;
1523;SDS011;755;53.658;10.118;2023-02-08T18:38:23;52.50;;;16.08;;
1523;SDS011;755;53.658;10.118;2023-02-08T18:48:26;50.35;;;19.20;;
1523;SDS011;755;53.658;10.118;2023-02-08T18:58:29;51.47;;;18.73;;
1523;SDS011;755;53.658;10.118;2023-02-08T19:08:33;53.38;;;19.73;;
1523;SDS011;755;53.658;10.118;2023-02-08T19:18:36;46.00;;;18.95;;
1523;SDS011;755;53.658;10.118;2023-02-08T19:28:40;65.80;;;25.25;;
1523;SDS011;755;53.658;10.118;2023-02-08T19:38:42;51.45;;;20.92;;
1523;SDS011;755;53.658;10.118;2023-02-08T19:48:45;63.92;;;24.20;;
1523;SDS011;755;53.658;10.118;2023-02-08T19:58:47;63.20;;;24.38;;
1523;SDS011;755;53.658;10.118;2023-02-08T20:08:51;60.00;;;22.10;;
1523;SDS011;755;53.658;10.118;2023-02-08T20:18:53;61.65;;;22.98;;
1523;SDS011;755;53.658;10.118;2023-02-08T20:28:57;64.47;;;24.17;;
1523;SDS011;755;53.658;10.118;2023-02-08T20:38:59;53.25;;;21.73;;
1523;SDS011;755;53.658;10.118;2023-02-08T20:49:03;71.10;;;25.35;;
1523;SDS011;755;53.658;10.118;2023-02-08T20:59:06;66.80;;;23.77;;
1523;SDS011;755;53.658;10.118;2023-02-08T21:09:14;64.43;;;25.20;;
1523;SDS011;755;53.658;10.118;2023-02-08T21:19:18;53.95;;;21.08;;
1523;SDS011;755;53.658;10.118;2023-02-08T21:29:22;68.07;;;24.25;;
1523;SDS011;755;53.658;10.118;2023-02-08T21:39:24;66.90;;;24.92;;
1523;SDS011;755;53.658;10.118;2023-02-08T21:49:28;57.05;;;21.60;;
1523;SDS011;755;53.658;10.118;2023-02-08T21:59:48;94.43;;;31.58;;
1523;SDS011;755;53.658;10.118;2023-02-08T22:09:53;106.80;;;33.03;;
1523;SDS011;755;53.658;10.118;2023-02-08T22:19:56;70.00;;;26.33;;
1523;SDS011;755;53.658;10.118;2023-02-08T22:29:59;80.43;;;25.45;;
1523;SDS011;755;53.658;10.118;2023-02-08T22:40:01;65.72;;;24.80;;
1523;SDS011;755;53.658;10.118;2023-02-08T22:50:06;63.17;;;23.45;;
1523;SDS011;755;53.658;10.118;2023-02-08T23:00:11;63.47;;;24.98;;
1523;SDS011;755;53.658;10.118;2023-02-08T23:10:15;63.90;;;23.13;;
1523;SDS011;755;53.658;10.118;2023-02-08T23:20:18;62.85;;;23.75;;
1523;SDS011;755;53.658;10.118;2023-02-08T23:30:22;60.15;;;23.42;;
1523;SDS011;755;53.658;10.118;2023-02-08T23:40:24;71.18;;;26.63;;
1523;SDS011;755;53.658;10.118;2023-02-08T23:50:27;84.53;;;26.50;;
